sensor_id;sensor_type;location;lat;lon;timestamp;P1;durP1;ratioP1;P2;durP2;ratioP2
53646;SDS011;39550;52.230;5.194;2023-05-20T00:01:58;5.05;;;3.28;;
53646;SDS011;39550;52.230;5.194;2023-05-20T00:04:24;5.40;;;3.20;;
53646;SDS011;39550;52.230;5.194;2023-05-20T00:06:49;5.93;;;3.47;;
53646;SDS011;39550;52.230;5.194;2023-05-20T00:09:15;6.60;;;3.70;;
53646;SDS011;39550;52.230;5.194;2023-05-20T00:11:44;5.85;;;3.25;;
53646;SDS011;39550;52.230;5.194;2023-05-20T00:14:10;5.18;;;3.40;;
53646;SDS011;39550;52.230;5.194;2023-05-20T00:16:35;6.75;;;3.40;;
53646;SDS011;39550;52.230;5.194;2023-05-20T00:19:01;6.68;;;3.38;;
53646;SDS011;39550;52.230;5.194;2023-05-20T00:21:26;6.00;;;3.15;;
53646;SDS011;39550;52.230;5.194;2023-05-20T00:23:51;6.88;;;3.42;;
53646;SDS011;39550;52.230;5.194;2023-05-20T00:26:17;8.27;;;3.80;;
53646;SDS011;39550;52.230;5.194;2023-05-20T00:28:42;6.80;;;3.33;;
53646;SDS011;39550;52.230;5.194;2023-05-20T00:31:08;5.88;;;3.22;;
53646;SDS011;39550;52.230;5.194;2023-05-20T00:33:34;6.55;;;3.50;;
53646;SDS011;39550;52.230;5.194;2023-05-20T00:36:00;5.30;;;3.50;;
53646;SDS011;39550;52.230;5.194;2023-05-20T00:38:26;5.80;;;3.42;;
53646;SDS011;39550;52.230;5.194;2023-05-20T00:40:51;5.13;;;3.50;;
53646;SDS011;39550;52.230;5.194;2023-05-20T00:43:17;5.57;;;3.60;;
53646;SDS011;39550;52.230;5.194;2023-05-20T00:45:44;6.13;;;3.75;;
53646;SDS011;39550;52.230;5.194;2023-05-20T00:48:10;5.80;;;3.80;;
53646;SDS011;39550;52.230;5.194;2023-05-20T00:50:35;5.85;;;3.58;;
53646;SDS011;39550;52.230;5.194;2023-05-20T00:53:01;5.77;;;3.63;;
53646;SDS011;39550;52.230;5.194;2023-05-20T00:55:27;5.28;;;3.38;;
53646;SDS011;39550;52.230;5.194;2023-05-20T00:57:52;5.55;;;3.47;;
53646;SDS011;39550;52.230;5.194;2023-05-20T01:00:18;7.03;;;3.30;;
53646;SDS011;39550;52.230;5.194;2023-05-20T01:02:44;5.43;;;3.65;;
53646;SDS011;39550;52.230;5.194;2023-05-20T01:05:09;5.20;;;3.47;;
53646;SDS011;39550;52.230;5.194;2023-05-20T01:07:35;8.18;;;3.67;;
53646;SDS011;39550;52.230;5.194;2023-05-20T01:10:00;7.13;;;4.10;;
53646;SDS011;39550;52.230;5.194;2023-05-20T01:12:27;5.72;;;3.50;;
53646;SDS011;39550;52.230;5.194;2023-05-20T01:15:06;6.10;;;3.53;;
53646;SDS011;39550;52.230;5.194;2023-05-20T01:17:34;5.80;;;3.35;;
53646;SDS011;39550;52.230;5.194;2023-05-20T01:20:02;5.30;;;3.13;;
53646;SDS011;39550;52.230;5.194;2023-05-20T01:22:30;6.93;;;4.13;;
53646;SDS011;39550;52.230;5.194;2023-05-20T01:24:55;6.78;;;3.53;;
53646;SDS011;39550;52.230;5.194;2023-05-20T01:27:21;6.03;;;3.60;;
53646;SDS011;39550;52.230;5.194;2023-05-20T01:29:48;5.80;;;3.60;;
53646;SDS011;39550;52.230;5.194;2023-05-20T01:32:33;6.57;;;4.22;;
53646;SDS011;39550;52.230;5.194;2023-05-20T01:35:02;5.18;;;3.50;;
53646;SDS011;39550;52.230;5.194;2023-05-20T01:37:30;6.07;;;3.90;;
53646;SDS011;39550;52.230;5.194;2023-05-20T01:39:56;6.10;;;3.50;;
53646;SDS011;39550;52.230;5.194;2023-05-20T01:42:22;5.85;;;3.47;;
53646;SDS011;39550;52.230;5.194;2023-05-20T01:44:51;8.18;;;3.88;;
53646;SDS011;39550;52.230;5.194;2023-05-20T01:47:16;6.28;;;3.47;;
53646;SDS011;39550;52.230;5.194;2023-05-20T01:49:41;5.63;;;3.50;;
53646;SDS011;39550;52.230;5.194;2023-05-20T01:52:07;6.95;;;4.10;;
53646;SDS011;39550;52.230;5.194;2023-05-20T01:54:33;5.32;;;3.63;;
53646;SDS011;39550;52.230;5.194;2023-05-20T01:56:58;6.38;;;4.00;;
53646;SDS011;39550;52.230;5.194;2023-05-20T01:59:23;6.90;;;3.58;;
53646;SDS011;39550;52.230;5.194;2023-05-20T02:01:49;6.55;;;3.50;;
53646;SDS011;39550;52.230;5.194;2023-05-20T02:04:14;5.18;;;3.28;;
53646;SDS011;39550;52.230;5.194;2023-05-20T02:06:39;6.40;;;3.63;;
53646;SDS011;39550;52.230;5.194;2023-05-20T02:09:05;5.50;;;3.70;;
53646;SDS011;39550;52.230;5.194;2023-05-20T02:11:31;6.57;;;3.60;;
53646;SDS011;39550;52.230;5.194;2023-05-20T02:13:56;6.70;;;3.60;;
53646;SDS011;39550;52.230;5.194;2023-05-20T02:16:22;7.22;;;3.97;;
53646;SDS011;39550;52.230;5.194;2023-05-20T02:18:47;6.97;;;3.63;;
53646;SDS011;39550;52.230;5.194;2023-05-20T02:21:15;6.30;;;3.30;;
53646;SDS011;39550;52.230;5.194;2023-05-20T02:23:40;6.00;;;3.60;;
53646;SDS011;39550;52.230;5.194;2023-05-20T02:26:06;7.70;;;3.72;;
53646;SDS011;39550;52.230;5.194;2023-05-20T02:28:31;5.82;;;3.80;;
53646;SDS011;39550;52.230;5.194;2023-05-20T02:30:57;6.30;;;3.70;;
53646;SDS011;39550;52.230;5.194;2023-05-20T02:33:22;6.80;;;3.90;;
53646;SDS011;39550;52.230;5.194;2023-05-20T02:35:48;5.72;;;3.47;;
53646;SDS011;39550;52.230;5.194;2023-05-20T02:38:14;6.90;;;3.78;;
53646;SDS011;39550;52.230;5.194;2023-05-20T02:40:42;8.48;;;3.90;;
53646;SDS011;39550;52.230;5.194;2023-05-20T02:43:08;5.80;;;3.80;;
53646;SDS011;39550;52.230;5.194;2023-05-20T02:45:33;7.30;;;4.00;;
53646;SDS011;39550;52.230;5.194;2023-05-20T02:47:59;5.50;;;3.63;;
53646;SDS011;39550;52.230;5.194;2023-05-20T02:50:24;6.90;;;3.45;;
53646;SDS011;39550;52.230;5.194;2023-05-20T02:52:50;5.25;;;3.28;;
53646;SDS011;39550;52.230;5.194;2023-05-20T02:55:15;6.15;;;3.95;;
53646;SDS011;39550;52.230;5.194;2023-05-20T02:57:40;5.45;;;3.30;;
53646;SDS011;39550;52.230;5.194;2023-05-20T03:00:06;5.30;;;3.42;;
53646;SDS011;39550;52.230;5.194;2023-05-20T03:02:35;7.63;;;3.67;;
53646;SDS011;39550;52.230;5.194;2023-05-20T03:05:01;6.30;;;3.45;;
53646;SDS011;39550;52.230;5.194;2023-05-20T03:07:29;5.75;;;3.92;;
53646;SDS011;39550;52.230;5.194;2023-05-20T03:09:55;5.45;;;3.10;;
53646;SDS011;39550;52.230;5.194;2023-05-20T03:12:22;5.55;;;3.55;;
53646;SDS011;39550;52.230;5.194;2023-05-20T03:14:50;6.13;;;3.67;;
53646;SDS011;39550;52.230;5.194;2023-05-20T03:17:19;6.97;;;3.63;;
53646;SDS011;39550;52.230;5.194;2023-05-20T03:19:44;6.47;;;3.42;;
53646;SDS011;39550;52.230;5.194;2023-05-20T03:22:10;6.88;;;3.70;;
53646;SDS011;39550;52.230;5.194;2023-05-20T03:24:35;5.93;;;3.60;;
53646;SDS011;39550;52.230;5.194;2023-05-20T03:27:01;6.35;;;3.40;;
53646;SDS011;39550;52.230;5.194;2023-05-20T03:29:26;6.38;;;3.63;;
53646;SDS011;39550;52.230;5.194;2023-05-20T03:31:51;6.18;;;3.50;;
53646;SDS011;39550;52.230;5.194;2023-05-20T03:34:17;5.45;;;3.70;;
53646;SDS011;39550;52.230;5.194;2023-05-20T03:36:42;6.95;;;3.67;;
53646;SDS011;39550;52.230;5.194;2023-05-20T03:39:07;6.70;;;3.65;;
53646;SDS011;39550;52.230;5.194;2023-05-20T03:41:33;6.03;;;4.05;;
53646;SDS011;39550;52.230;5.194;2023-05-20T03:43:59;5.40;;;3.28;;
53646;SDS011;39550;52.230;5.194;2023-05-20T03:46:24;6.25;;;3.80;;
53646;SDS011;39550;52.230;5.194;2023-05-20T03:48:49;7.32;;;3.63;;
53646;SDS011;39550;52.230;5.194;2023-05-20T03:51:15;5.43;;;3.65;;
53646;SDS011;39550;52.230;5.194;2023-05-20T03:53:40;7.43;;;3.70;;
53646;SDS011;39550;52.230;5.194;2023-05-20T03:56:05;5.65;;;3.63;;
53646;SDS011;39550;52.230;5.194;2023-05-20T03:58:32;6.88;;;3.70;;
53646;SDS011;39550;52.230;5.194;2023-05-20T04:00:57;6.25;;;3.67;;
53646;SDS011;39550;52.230;5.194;2023-05-20T04:03:23;7.00;;;3.63;;
53646;SDS011;39550;52.230;5.194;2023-05-20T04:05:48;5.93;;;3.22;;
53646;SDS011;39550;52.230;5.194;2023-05-20T04:08:14;5.70;;;3.25;;
53646;SDS011;39550;52.230;5.194;2023-05-20T04:10:40;6.63;;;3.47;;
53646;SDS011;39550;52.230;5.194;2023-05-20T04:13:09;5.05;;;3.53;;
53646;SDS011;39550;52.230;5.194;2023-05-20T04:15:35;6.00;;;3.42;;
53646;SDS011;39550;52.230;5.194;2023-05-20T04:18:01;5.60;;;3.53;;
53646;SDS011;39550;52.230;5.194;2023-05-20T04:20:26;5.35;;;3.85;;
53646;SDS011;39550;52.230;5.194;2023-05-20T04:22:51;5.53;;;3.40;;
53646;SDS011;39550;52.230;5.194;2023-05-20T04:25:18;7.28;;;3.28;;
53646;SDS011;39550;52.230;5.194;2023-05-20T04:27:43;6.45;;;3.50;;
53646;SDS011;39550;52.230;5.194;2023-05-20T04:30:09;6.53;;;3.67;;
53646;SDS011;39550;52.230;5.194;2023-05-20T04:32:35;6.68;;;3.97;;
53646;SDS011;39550;52.230;5.194;2023-05-20T04:35:00;5.90;;;3.55;;
53646;SDS011;39550;52.230;5.194;2023-05-20T04:37:26;6.07;;;3.60;;
53646;SDS011;39550;52.230;5.194;2023-05-20T04:39:52;7.15;;;3.88;;
53646;SDS011;39550;52.230;5.194;2023-05-20T04:42:18;4.90;;;3.20;;
53646;SDS011;39550;52.230;5.194;2023-05-20T04:44:45;7.78;;;3.88;;
53646;SDS011;39550;52.230;5.194;2023-05-20T04:47:12;7.82;;;3.65;;
53646;SDS011;39550;52.230;5.194;2023-05-20T04:49:38;5.80;;;3.60;;
53646;SDS011;39550;52.230;5.194;2023-05-20T04:52:03;5.53;;;3.75;;
53646;SDS011;39550;52.230;5.194;2023-05-20T04:54:29;5.70;;;3.30;;
53646;SDS011;39550;52.230;5.194;2023-05-20T04:56:55;5.45;;;3.30;;
53646;SDS011;39550;52.230;5.194;2023-05-20T04:59:20;6.00;;;3.67;;
53646;SDS011;39550;52.230;5.194;2023-05-20T05:01:46;5.00;;;3.15;;
53646;SDS011;39550;52.230;5.194;2023-05-20T05:04:11;5.20;;;3.58;;
53646;SDS011;39550;52.230;5.194;2023-05-20T05:06:37;9.38;;;4.10;;
53646;SDS011;39550;52.230;5.194;2023-05-20T05:09:02;5.22;;;3.50;;
53646;SDS011;39550;52.230;5.194;2023-05-20T05:11:28;8.63;;;3.75;;
53646;SDS011;39550;52.230;5.194;2023-05-20T05:13:54;6.68;;;3.78;;
53646;SDS011;39550;52.230;5.194;2023-05-20T05:16:19;7.28;;;3.58;;
53646;SDS011;39550;52.230;5.194;2023-05-20T05:18:45;5.88;;;3.25;;
53646;SDS011;39550;52.230;5.194;2023-05-20T05:21:11;6.60;;;3.55;;
53646;SDS011;39550;52.230;5.194;2023-05-20T05:23:38;5.93;;;3.58;;
53646;SDS011;39550;52.230;5.194;2023-05-20T05:26:03;6.38;;;3.67;;
53646;SDS011;39550;52.230;5.194;2023-05-20T05:28:29;7.90;;;3.78;;
53646;SDS011;39550;52.230;5.194;2023-05-20T05:30:54;5.18;;;3.10;;
53646;SDS011;39550;52.230;5.194;2023-05-20T05:33:20;8.05;;;3.88;;
53646;SDS011;39550;52.230;5.194;2023-05-20T05:35:46;6.25;;;3.42;;
53646;SDS011;39550;52.230;5.194;2023-05-20T05:38:12;7.35;;;3.85;;
53646;SDS011;39550;52.230;5.194;2023-05-20T05:40:37;7.43;;;3.58;;
53646;SDS011;39550;52.230;5.194;2023-05-20T05:43:03;5.85;;;3.70;;
53646;SDS011;39550;52.230;5.194;2023-05-20T05:45:28;6.45;;;3.35;;
53646;SDS011;39550;52.230;5.194;2023-05-20T05:47:53;5.07;;;3.35;;
53646;SDS011;39550;52.230;5.194;2023-05-20T05:50:19;4.85;;;3.50;;
53646;SDS011;39550;52.230;5.194;2023-05-20T05:52:44;6.57;;;3.47;;
53646;SDS011;39550;52.230;5.194;2023-05-20T05:55:10;6.20;;;3.70;;
53646;SDS011;39550;52.230;5.194;2023-05-20T05:57:36;5.32;;;3.30;;
53646;SDS011;39550;52.230;5.194;2023-05-20T06:00:01;7.90;;;3.60;;
53646;SDS011;39550;52.230;5.194;2023-05-20T06:02:29;6.85;;;4.05;;
53646;SDS011;39550;52.230;5.194;2023-05-20T06:04:59;6.60;;;3.72;;
53646;SDS011;39550;52.230;5.194;2023-05-20T06:07:28;7.00;;;4.20;;
53646;SDS011;39550;52.230;5.194;2023-05-20T06:09:53;6.53;;;3.88;;
53646;SDS011;39550;52.230;5.194;2023-05-20T06:12:19;5.72;;;3.80;;
53646;SDS011;39550;52.230;5.194;2023-05-20T06:14:44;5.75;;;3.97;;
53646;SDS011;39550;52.230;5.194;2023-05-20T06:17:10;6.18;;;3.53;;
53646;SDS011;39550;52.230;5.194;2023-05-20T06:19:35;5.63;;;3.30;;
53646;SDS011;39550;52.230;5.194;2023-05-20T06:22:00;6.93;;;4.05;;
53646;SDS011;39550;52.230;5.194;2023-05-20T06:24:25;7.25;;;4.00;;
53646;SDS011;39550;52.230;5.194;2023-05-20T06:26:51;6.70;;;3.78;;
53646;SDS011;39550;52.230;5.194;2023-05-20T06:29:16;8.32;;;4.38;;
53646;SDS011;39550;52.230;5.194;2023-05-20T06:31:41;6.03;;;3.72;;
53646;SDS011;39550;52.230;5.194;2023-05-20T06:34:07;5.63;;;3.75;;
53646;SDS011;39550;52.230;5.194;2023-05-20T06:36:32;7.53;;;3.75;;
53646;SDS011;39550;52.230;5.194;2023-05-20T06:38:57;5.80;;;3.60;;
53646;SDS011;39550;52.230;5.194;2023-05-20T06:41:23;5.65;;;3.38;;
53646;SDS011;39550;52.230;5.194;2023-05-20T06:43:49;5.63;;;3.45;;
53646;SDS011;39550;52.230;5.194;2023-05-20T06:46:14;6.38;;;3.55;;
53646;SDS011;39550;52.230;5.194;2023-05-20T06:48:39;7.68;;;3.80;;
53646;SDS011;39550;52.230;5.194;2023-05-20T06:51:08;5.25;;;3.25;;
53646;SDS011;39550;52.230;5.194;2023-05-20T06:53:34;6.80;;;3.67;;
53646;SDS011;39550;52.230;5.194;2023-05-20T06:56:00;6.70;;;3.88;;
53646;SDS011;39550;52.230;5.194;2023-05-20T06:58:26;6.32;;;3.70;;
53646;SDS011;39550;52.230;5.194;2023-05-20T07:00:51;6.70;;;3.80;;
53646;SDS011;39550;52.230;5.194;2023-05-20T07:03:17;6.43;;;3.78;;
53646;SDS011;39550;52.230;5.194;2023-05-20T07:05:50;6.55;;;3.58;;
53646;SDS011;39550;52.230;5.194;2023-05-20T07:08:15;5.78;;;3.72;;
53646;SDS011;39550;52.230;5.194;2023-05-20T07:10:40;5.65;;;3.28;;
53646;SDS011;39550;52.230;5.194;2023-05-20T07:13:06;6.25;;;3.30;;
53646;SDS011;39550;52.230;5.194;2023-05-20T07:15:31;5.38;;;3.10;;
53646;SDS011;39550;52.230;5.194;2023-05-20T07:17:57;5.15;;;3.22;;
53646;SDS011;39550;52.230;5.194;2023-05-20T07:20:23;5.55;;;3.38;;
53646;SDS011;39550;52.230;5.194;2023-05-20T07:22:48;6.10;;;3.72;;
53646;SDS011;39550;52.230;5.194;2023-05-20T07:25:15;5.00;;;3.50;;
53646;SDS011;39550;52.230;5.194;2023-05-20T07:27:40;6.78;;;3.47;;
53646;SDS011;39550;52.230;5.194;2023-05-20T07:30:06;6.97;;;3.20;;
53646;SDS011;39550;52.230;5.194;2023-05-20T07:32:32;5.72;;;3.65;;
53646;SDS011;39550;52.230;5.194;2023-05-20T07:34:57;5.88;;;3.35;;
53646;SDS011;39550;52.230;5.194;2023-05-20T07:37:26;6.30;;;3.28;;
53646;SDS011;39550;52.230;5.194;2023-05-20T07:39:51;5.47;;;3.38;;
53646;SDS011;39550;52.230;5.194;2023-05-20T07:42:16;5.32;;;2.95;;
53646;SDS011;39550;52.230;5.194;2023-05-20T07:44:42;4.97;;;3.47;;
53646;SDS011;39550;52.230;5.194;2023-05-20T07:47:07;6.22;;;3.40;;
53646;SDS011;39550;52.230;5.194;2023-05-20T07:49:33;4.80;;;3.10;;
53646;SDS011;39550;52.230;5.194;2023-05-20T07:51:58;5.57;;;3.65;;
53646;SDS011;39550;52.230;5.194;2023-05-20T07:54:23;4.85;;;3.00;;
53646;SDS011;39550;52.230;5.194;2023-05-20T07:56:49;6.20;;;3.50;;
53646;SDS011;39550;52.230;5.194;2023-05-20T07:59:14;5.35;;;3.10;;
53646;SDS011;39550;52.230;5.194;2023-05-20T08:01:40;5.20;;;3.00;;
53646;SDS011;39550;52.230;5.194;2023-05-20T08:04:06;5.30;;;3.15;;
53646;SDS011;39550;52.230;5.194;2023-05-20T08:06:31;7.28;;;3.78;;
53646;SDS011;39550;52.230;5.194;2023-05-20T08:08:57;5.28;;;3.38;;
53646;SDS011;39550;52.230;5.194;2023-05-20T08:11:26;5.18;;;3.10;;
53646;SDS011;39550;52.230;5.194;2023-05-20T08:13:52;5.18;;;3.08;;
53646;SDS011;39550;52.230;5.194;2023-05-20T08:16:20;4.78;;;3.05;;
53646;SDS011;39550;52.230;5.194;2023-05-20T08:18:48;5.78;;;3.65;;
53646;SDS011;39550;52.230;5.194;2023-05-20T08:21:14;5.32;;;3.47;;
53646;SDS011;39550;52.230;5.194;2023-05-20T08:23:39;4.47;;;2.80;;
53646;SDS011;39550;52.230;5.194;2023-05-20T08:26:05;5.65;;;3.17;;
53646;SDS011;39550;52.230;5.194;2023-05-20T08:28:30;5.57;;;3.20;;
53646;SDS011;39550;52.230;5.194;2023-05-20T08:30:56;7.47;;;3.75;;
53646;SDS011;39550;52.230;5.194;2023-05-20T08:33:24;5.77;;;3.10;;
53646;SDS011;39550;52.230;5.194;2023-05-20T08:35:50;5.20;;;3.00;;
53646;SDS011;39550;52.230;5.194;2023-05-20T08:38:15;5.03;;;3.20;;
53646;SDS011;39550;52.230;5.194;2023-05-20T08:40:40;5.78;;;3.25;;
53646;SDS011;39550;52.230;5.194;2023-05-20T08:43:06;6.13;;;3.30;;
53646;SDS011;39550;52.230;5.194;2023-05-20T08:45:32;4.28;;;2.85;;
53646;SDS011;39550;52.230;5.194;2023-05-20T08:47:59;5.32;;;3.00;;
53646;SDS011;39550;52.230;5.194;2023-05-20T08:50:25;5.38;;;3.53;;
53646;SDS011;39550;52.230;5.194;2023-05-20T08:52:51;5.95;;;3.10;;
53646;SDS011;39550;52.230;5.194;2023-05-20T08:55:18;5.97;;;3.20;;
53646;SDS011;39550;52.230;5.194;2023-05-20T08:57:49;5.28;;;3.25;;
53646;SDS011;39550;52.230;5.194;2023-05-20T09:00:15;4.80;;;3.13;;
53646;SDS011;39550;52.230;5.194;2023-05-20T09:02:43;5.38;;;3.47;;
53646;SDS011;39550;52.230;5.194;2023-05-20T09:05:10;7.25;;;3.30;;
53646;SDS011;39550;52.230;5.194;2023-05-20T09:07:35;5.10;;;2.85;;
53646;SDS011;39550;52.230;5.194;2023-05-20T09:10:01;5.30;;;2.85;;
53646;SDS011;39550;52.230;5.194;2023-05-20T09:12:27;5.28;;;2.83;;
53646;SDS011;39550;52.230;5.194;2023-05-20T09:14:52;4.50;;;2.85;;
53646;SDS011;39550;52.230;5.194;2023-05-20T09:17:19;4.97;;;2.90;;
53646;SDS011;39550;52.230;5.194;2023-05-20T09:19:47;4.32;;;2.80;;
53646;SDS011;39550;52.230;5.194;2023-05-20T09:22:13;6.68;;;3.10;;
53646;SDS011;39550;52.230;5.194;2023-05-20T09:24:39;6.75;;;2.80;;
53646;SDS011;39550;52.230;5.194;2023-05-20T09:27:05;5.68;;;2.72;;
53646;SDS011;39550;52.230;5.194;2023-05-20T09:29:31;6.75;;;3.15;;
53646;SDS011;39550;52.230;5.194;2023-05-20T09:32:00;4.13;;;2.60;;
53646;SDS011;39550;52.230;5.194;2023-05-20T09:34:26;6.47;;;2.90;;
53646;SDS011;39550;52.230;5.194;2023-05-20T09:36:52;5.72;;;3.08;;
53646;SDS011;39550;52.230;5.194;2023-05-20T09:39:21;4.55;;;2.88;;
53646;SDS011;39550;52.230;5.194;2023-05-20T09:41:55;4.80;;;2.72;;
53646;SDS011;39550;52.230;5.194;2023-05-20T09:44:26;6.65;;;2.80;;
53646;SDS011;39550;52.230;5.194;2023-05-20T09:46:53;6.68;;;3.05;;
53646;SDS011;39550;52.230;5.194;2023-05-20T09:49:20;5.28;;;2.85;;
53646;SDS011;39550;52.230;5.194;2023-05-20T09:51:47;5.32;;;2.90;;
53646;SDS011;39550;52.230;5.194;2023-05-20T09:54:14;4.60;;;2.40;;
53646;SDS011;39550;52.230;5.194;2023-05-20T09:56:41;5.18;;;2.85;;
53646;SDS011;39550;52.230;5.194;2023-05-20T09:59:08;5.25;;;2.83;;
53646;SDS011;39550;52.230;5.194;2023-05-20T10:01:35;7.38;;;2.55;;
53646;SDS011;39550;52.230;5.194;2023-05-20T10:04:00;4.50;;;2.72;;
53646;SDS011;39550;52.230;5.194;2023-05-20T10:12:23;4.90;;;2.70;;
53646;SDS011;39550;52.230;5.194;2023-05-20T10:15:15;3.90;;;2.40;;
53646;SDS011;39550;52.230;5.194;2023-05-20T10:17:50;6.63;;;2.72;;
53646;SDS011;39550;52.230;5.194;2023-05-20T10:20:44;5.65;;;2.53;;
53646;SDS011;39550;52.230;5.194;2023-05-20T10:23:19;6.65;;;3.00;;
53646;SDS011;39550;52.230;5.194;2023-05-20T10:25:53;5.45;;;2.58;;
53646;SDS011;39550;52.230;5.194;2023-05-20T10:28:26;5.75;;;2.75;;
53646;SDS011;39550;52.230;5.194;2023-05-20T10:30:57;5.43;;;2.63;;
53646;SDS011;39550;52.230;5.194;2023-05-20T10:33:24;5.00;;;2.72;;
53646;SDS011;39550;52.230;5.194;2023-05-20T10:35:51;5.10;;;2.58;;
53646;SDS011;39550;52.230;5.194;2023-05-20T10:38:17;4.60;;;2.70;;
53646;SDS011;39550;52.230;5.194;2023-05-20T10:40:44;5.20;;;2.67;;
53646;SDS011;39550;52.230;5.194;2023-05-20T10:43:10;5.18;;;2.53;;
53646;SDS011;39550;52.230;5.194;2023-05-20T10:45:49;5.03;;;2.85;;
53646;SDS011;39550;52.230;5.194;2023-05-20T10:48:29;5.15;;;2.55;;
53646;SDS011;39550;52.230;5.194;2023-05-20T10:50:56;5.35;;;2.72;;
53646;SDS011;39550;52.230;5.194;2023-05-20T10:53:24;5.45;;;3.42;;
53646;SDS011;39550;52.230;5.194;2023-05-20T10:55:51;4.82;;;2.75;;
53646;SDS011;39550;52.230;5.194;2023-05-20T10:58:19;6.93;;;2.85;;
53646;SDS011;39550;52.230;5.194;2023-05-20T11:00:46;4.88;;;2.70;;
53646;SDS011;39550;52.230;5.194;2023-05-20T11:03:13;4.28;;;2.40;;
53646;SDS011;39550;52.230;5.194;2023-05-20T11:05:40;6.60;;;3.28;;
53646;SDS011;39550;52.230;5.194;2023-05-20T11:08:07;4.88;;;2.70;;
53646;SDS011;39550;52.230;5.194;2023-05-20T11:10:33;5.03;;;2.90;;
53646;SDS011;39550;52.230;5.194;2023-05-20T11:13:00;5.38;;;2.65;;
53646;SDS011;39550;52.230;5.194;2023-05-20T11:15:27;5.53;;;2.72;;
53646;SDS011;39550;52.230;5.194;2023-05-20T11:17:54;4.78;;;3.10;;
53646;SDS011;39550;52.230;5.194;2023-05-20T11:20:22;6.15;;;2.92;;
53646;SDS011;39550;52.230;5.194;2023-05-20T11:22:52;5.65;;;2.95;;
53646;SDS011;39550;52.230;5.194;2023-05-20T11:27:44;4.88;;;2.70;;
53646;SDS011;39550;52.230;5.194;2023-05-20T11:30:10;6.35;;;2.97;;
53646;SDS011;39550;52.230;5.194;2023-05-20T11:32:40;5.95;;;2.95;;
53646;SDS011;39550;52.230;5.194;2023-05-20T11:35:06;5.50;;;2.47;;
53646;SDS011;39550;52.230;5.194;2023-05-20T11:37:34;5.15;;;3.10;;
53646;SDS011;39550;52.230;5.194;2023-05-20T11:40:04;4.47;;;2.50;;
53646;SDS011;39550;52.230;5.194;2023-05-20T11:42:34;5.50;;;2.75;;
53646;SDS011;39550;52.230;5.194;2023-05-20T11:45:00;5.22;;;2.80;;
53646;SDS011;39550;52.230;5.194;2023-05-20T11:47:26;5.60;;;3.03;;
53646;SDS011;39550;52.230;5.194;2023-05-20T11:49:51;5.65;;;2.70;;
53646;SDS011;39550;52.230;5.194;2023-05-20T11:52:17;5.20;;;2.50;;
53646;SDS011;39550;52.230;5.194;2023-05-20T11:54:42;6.13;;;2.67;;
53646;SDS011;39550;52.230;5.194;2023-05-20T11:57:08;5.53;;;2.80;;
53646;SDS011;39550;52.230;5.194;2023-05-20T11:59:35;6.45;;;3.13;;
53646;SDS011;39550;52.230;5.194;2023-05-20T12:02:00;5.57;;;2.40;;
53646;SDS011;39550;52.230;5.194;2023-05-20T12:04:26;4.38;;;2.28;;
53646;SDS011;39550;52.230;5.194;2023-05-20T12:06:51;6.10;;;3.03;;
53646;SDS011;39550;52.230;5.194;2023-05-20T12:09:17;4.60;;;2.80;;
53646;SDS011;39550;52.230;5.194;2023-05-20T12:11:42;4.93;;;2.65;;
53646;SDS011;39550;52.230;5.194;2023-05-20T12:14:09;4.20;;;2.50;;
53646;SDS011;39550;52.230;5.194;2023-05-20T12:16:35;4.10;;;2.65;;
53646;SDS011;39550;52.230;5.194;2023-05-20T12:19:03;4.63;;;2.50;;
53646;SDS011;39550;52.230;5.194;2023-05-20T12:21:29;5.38;;;2.60;;
53646;SDS011;39550;52.230;5.194;2023-05-20T12:23:55;4.85;;;2.90;;
53646;SDS011;39550;52.230;5.194;2023-05-20T12:26:25;5.50;;;3.05;;
53646;SDS011;39550;52.230;5.194;2023-05-20T12:28:52;4.53;;;2.50;;
53646;SDS011;39550;52.230;5.194;2023-05-20T12:31:20;4.00;;;2.40;;
53646;SDS011;39550;52.230;5.194;2023-05-20T12:33:45;4.30;;;2.53;;
53646;SDS011;39550;52.230;5.194;2023-05-20T12:36:11;5.15;;;3.10;;
53646;SDS011;39550;52.230;5.194;2023-05-20T12:38:37;5.45;;;3.20;;
53646;SDS011;39550;52.230;5.194;2023-05-20T12:41:02;5.20;;;2.70;;
53646;SDS011;39550;52.230;5.194;2023-05-20T12:43:28;4.32;;;2.60;;
53646;SDS011;39550;52.230;5.194;2023-05-20T12:45:53;4.38;;;2.60;;
53646;SDS011;39550;52.230;5.194;2023-05-20T12:48:19;5.65;;;2.75;;
53646;SDS011;39550;52.230;5.194;2023-05-20T12:50:45;4.55;;;2.47;;
53646;SDS011;39550;52.230;5.194;2023-05-20T12:53:10;5.80;;;2.70;;
53646;SDS011;39550;52.230;5.194;2023-05-20T12:55:35;5.72;;;2.85;;
53646;SDS011;39550;52.230;5.194;2023-05-20T12:58:02;5.53;;;2.65;;
53646;SDS011;39550;52.230;5.194;2023-05-20T13:00:35;6.38;;;2.53;;
53646;SDS011;39550;52.230;5.194;2023-05-20T13:03:00;6.70;;;2.60;;
53646;SDS011;39550;52.230;5.194;2023-05-20T13:05:25;6.05;;;3.10;;
53646;SDS011;39550;52.230;5.194;2023-05-20T13:07:51;4.03;;;2.60;;
53646;SDS011;39550;52.230;5.194;2023-05-20T13:10:16;6.97;;;2.70;;
53646;SDS011;39550;52.230;5.194;2023-05-20T13:12:42;4.47;;;2.60;;
53646;SDS011;39550;52.230;5.194;2023-05-20T13:15:11;5.60;;;2.78;;
53646;SDS011;39550;52.230;5.194;2023-05-20T13:17:38;6.25;;;2.75;;
53646;SDS011;39550;52.230;5.194;2023-05-20T13:20:04;4.95;;;2.42;;
53646;SDS011;39550;52.230;5.194;2023-05-20T13:22:30;6.00;;;2.72;;
53646;SDS011;39550;52.230;5.194;2023-05-20T13:24:55;4.68;;;2.50;;
53646;SDS011;39550;52.230;5.194;2023-05-20T13:27:21;5.28;;;2.92;;
53646;SDS011;39550;52.230;5.194;2023-05-20T13:29:46;5.88;;;2.50;;
53646;SDS011;39550;52.230;5.194;2023-05-20T13:32:11;4.40;;;2.60;;
53646;SDS011;39550;52.230;5.194;2023-05-20T13:34:37;6.32;;;2.60;;
53646;SDS011;39550;52.230;5.194;2023-05-20T13:37:03;6.15;;;2.83;;
53646;SDS011;39550;52.230;5.194;2023-05-20T13:39:29;8.38;;;2.50;;
53646;SDS011;39550;52.230;5.194;2023-05-20T13:41:54;5.90;;;2.45;;
53646;SDS011;39550;52.230;5.194;2023-05-20T13:44:20;7.20;;;3.10;;
53646;SDS011;39550;52.230;5.194;2023-05-20T13:46:45;4.43;;;2.38;;
53646;SDS011;39550;52.230;5.194;2023-05-20T13:49:11;5.82;;;2.38;;
53646;SDS011;39550;52.230;5.194;2023-05-20T13:51:36;4.13;;;2.50;;
53646;SDS011;39550;52.230;5.194;2023-05-20T13:54:04;4.15;;;2.40;;
53646;SDS011;39550;52.230;5.194;2023-05-20T13:56:30;5.32;;;2.53;;
53646;SDS011;39550;52.230;5.194;2023-05-20T13:58:56;4.70;;;2.40;;
53646;SDS011;39550;52.230;5.194;2023-05-20T14:01:21;5.97;;;2.60;;
53646;SDS011;39550;52.230;5.194;2023-05-20T14:03:47;6.07;;;2.95;;
53646;SDS011;39550;52.230;5.194;2023-05-20T14:06:12;4.47;;;2.55;;
53646;SDS011;39550;52.230;5.194;2023-05-20T14:08:39;4.30;;;2.30;;
53646;SDS011;39550;52.230;5.194;2023-05-20T14:11:05;5.78;;;2.40;;
53646;SDS011;39550;52.230;5.194;2023-05-20T14:13:30;5.35;;;2.70;;
53646;SDS011;39550;52.230;5.194;2023-05-20T14:15:55;4.18;;;2.55;;
53646;SDS011;39550;52.230;5.194;2023-05-20T14:18:21;4.88;;;2.53;;
53646;SDS011;39550;52.230;5.194;2023-05-20T14:20:46;5.50;;;2.90;;
53646;SDS011;39550;52.230;5.194;2023-05-20T14:23:12;6.60;;;2.58;;
53646;SDS011;39550;52.230;5.194;2023-05-20T14:25:37;5.15;;;2.25;;
53646;SDS011;39550;52.230;5.194;2023-05-20T14:28:03;5.30;;;2.88;;
53646;SDS011;39550;52.230;5.194;2023-05-20T14:30:29;4.90;;;2.65;;
53646;SDS011;39550;52.230;5.194;2023-05-20T14:32:54;4.45;;;2.50;;
53646;SDS011;39550;52.230;5.194;2023-05-20T14:35:20;5.45;;;2.85;;
53646;SDS011;39550;52.230;5.194;2023-05-20T14:37:45;5.55;;;2.88;;
53646;SDS011;39550;52.230;5.194;2023-05-20T14:40:11;7.32;;;2.42;;
53646;SDS011;39550;52.230;5.194;2023-05-20T14:42:36;4.88;;;2.78;;
53646;SDS011;39550;52.230;5.194;2023-05-20T14:45:02;3.70;;;2.30;;
53646;SDS011;39550;52.230;5.194;2023-05-20T14:47:28;4.80;;;2.53;;
53646;SDS011;39550;52.230;5.194;2023-05-20T14:49:53;5.13;;;2.50;;
53646;SDS011;39550;52.230;5.194;2023-05-20T14:52:19;4.72;;;2.40;;